createdAt,value
2019-03-22T00:00:45.440Z,7.01
2019-03-22T00:04:51.257Z,7.05
2019-03-22T00:13:13.981Z,7.12
2019-03-22T00:17:19.727Z,7.23
2019-03-22T00:21:25.456Z,7.31
2019-03-22T00:25:31.158Z,7.33
2019-03-22T00:29:36.903Z,7.47
2019-03-22T00:33:42.626Z,7.28
2019-03-22T00:37:48.265Z,7.60
2019-03-22T00:41:54.030Z,7.57
2019-03-22T00:45:59.721Z,7.61
2019-03-22T00:50:16.320Z,7.50
2019-03-22T00:54:22.416Z,7.53
2019-03-22T00:58:47.437Z,7.28
2019-03-22T01:03:04.635Z,7.48
2019-03-22T01:07:10.333Z,7.48
2019-03-22T01:11:16.114Z,7.08
2019-03-22T01:15:21.891Z,7.14
2019-03-22T01:19:27.587Z,7.27
2019-03-22T01:23:33.561Z,7.02
2019-03-22T01:27:40.626Z,6.77
2019-03-22T01:31:46.753Z,6.68
2019-03-22T01:35:52.516Z,6.58
2019-03-22T01:39:58.189Z,6.38
2019-03-22T01:44:03.945Z,6.21
2019-03-22T01:52:40.731Z,6.47
2019-03-22T01:56:46.397Z,6.35
2019-03-22T02:00:52.116Z,6.38
2019-03-22T02:04:57.795Z,6.26
2019-03-22T02:13:49.055Z,6.63
2019-03-22T02:17:54.875Z,6.34
2019-03-22T02:22:00.555Z,6.21
2019-03-22T02:26:06.314Z,6.02
2019-03-22T02:34:51.112Z,6.45
2019-03-22T02:38:56.839Z,6.04
2019-03-22T02:43:02.614Z,5.70
2019-03-22T02:47:08.322Z,6.39
2019-03-22T02:51:14.058Z,6.55
2019-03-22T02:55:19.729Z,6.31
2019-03-22T02:59:25.676Z,6.53
2019-03-22T03:03:31.422Z,5.96
2019-03-22T03:07:37.152Z,5.72
2019-03-22T03:11:42.968Z,5.90
2019-03-22T03:15:48.873Z,5.93
2019-03-22T03:19:54.623Z,5.89
2019-03-22T03:24:00.536Z,5.56
2019-03-22T03:28:06.191Z,5.33
2019-03-22T03:32:11.797Z,5.02
2019-03-22T03:36:17.579Z,4.92
2019-03-22T03:40:23.245Z,4.82
2019-03-22T03:44:28.979Z,5.08
2019-03-22T03:48:34.893Z,5.00
2019-03-22T03:52:40.610Z,5.05
2019-03-22T03:56:46.288Z,5.22
2019-03-22T04:00:53.501Z,5.27
2019-03-22T04:04:59.131Z,4.94
2019-03-22T04:09:17.209Z,4.45
2019-03-22T04:13:22.957Z,4.39
2019-03-22T04:17:28.602Z,4.50
2019-03-22T04:21:34.353Z,4.52
2019-03-22T04:25:40.114Z,4.26
2019-03-22T04:29:45.770Z,3.98
2019-03-22T04:33:51.477Z,4.76
2019-03-22T04:37:58.839Z,5.09
2019-03-22T04:42:04.541Z,5.10
2019-03-22T04:46:21.412Z,5.32
2019-03-22T05:00:14.064Z,5.31
2019-03-22T05:05:13.164Z,5.00
2019-03-22T05:14:09.866Z,4.98
2019-03-22T05:18:15.952Z,4.48
2019-03-22T05:32:09.543Z,4.64
2019-03-22T05:36:15.270Z,4.48
2019-03-22T05:40:21.076Z,4.44
2019-03-22T05:44:26.862Z,4.59
2019-03-22T05:48:44.085Z,4.67
2019-03-22T05:52:49.795Z,4.37
2019-03-22T05:56:55.760Z,4.40
2019-03-22T06:01:01.769Z,4.61
2019-03-22T06:05:08.046Z,4.61
2019-03-22T06:09:15.892Z,4.31
2019-03-22T06:13:22.158Z,4.11
2019-03-22T06:17:27.901Z,4.07
2019-03-22T06:21:33.578Z,4.13
2019-03-22T06:25:39.254Z,4.33
2019-03-22T06:30:14.963Z,4.64
2019-03-22T06:34:20.636Z,5.01
2019-03-22T06:38:26.738Z,6.14
2019-03-22T06:42:32.429Z,6.78
2019-03-22T06:46:38.644Z,6.94
2019-03-22T06:50:44.416Z,6.00
2019-03-22T06:54:50.480Z,5.96
2019-03-22T06:58:56.187Z,6.05
2019-03-22T07:03:02.287Z,6.27
2019-03-22T07:07:08.584Z,6.10
2019-03-22T07:11:14.317Z,6.12
2019-03-22T07:15:20.071Z,6.73
2019-03-22T07:19:25.837Z,7.19
2019-03-22T07:23:31.587Z,7.30
2019-03-22T07:27:37.357Z,7.43
2019-03-22T07:31:43.047Z,7.99
2019-03-22T07:35:48.763Z,7.82
2019-03-22T07:39:54.442Z,7.94
2019-03-22T07:44:00.193Z,8.00
2019-03-22T07:48:05.829Z,8.09
2019-03-22T07:52:11.588Z,8.36
2019-03-22T07:56:17.571Z,8.70
2019-03-22T08:00:30.536Z,9.09
2019-03-22T08:04:50.188Z,9.28
2019-03-22T08:08:55.843Z,9.52
2019-03-22T08:13:01.493Z,9.74
2019-03-22T08:17:07.227Z,9.98
2019-03-22T08:21:13.017Z,10.09
2019-03-22T08:25:18.827Z,10.55
2019-03-22T08:29:24.592Z,10.87
2019-03-22T08:33:30.426Z,10.76
2019-03-22T08:37:36.231Z,11.09
2019-03-22T08:41:41.990Z,11.35
2019-03-22T08:45:47.707Z,11.87
2019-03-22T08:49:53.373Z,12.06
2019-03-22T08:53:59.082Z,11.91
2019-03-22T08:58:04.765Z,12.14
2019-03-22T09:02:10.485Z,11.83
2019-03-22T09:06:16.790Z,12.38
2019-03-22T09:10:22.481Z,12.81
2019-03-22T09:14:28.196Z,12.99
2019-03-22T09:18:33.869Z,13.03
2019-03-22T09:22:39.575Z,12.99
2019-03-22T09:26:47.795Z,13.40
2019-03-22T09:31:20.741Z,14.11
2019-03-22T09:35:26.525Z,13.61
2019-03-22T09:39:32.125Z,14.56
2019-03-22T09:43:37.860Z,14.65
2019-03-22T09:47:43.560Z,14.64
2019-03-22T09:51:49.256Z,13.62
2019-03-22T09:55:54.895Z,14.40
2019-03-22T10:00:00.522Z,14.08
2019-03-22T10:04:06.328Z,15.06
2019-03-22T10:08:12.032Z,15.27
2019-03-22T10:12:17.711Z,15.84
2019-03-22T10:16:23.430Z,15.48
2019-03-22T10:20:29.203Z,16.17
2019-03-22T10:24:34.878Z,15.74
2019-03-22T10:28:40.553Z,16.09
2019-03-22T10:32:46.236Z,16.54
2019-03-22T10:36:51.918Z,16.42
2019-03-22T10:40:57.710Z,17.17
2019-03-22T10:45:03.397Z,16.43
2019-03-22T10:49:09.096Z,17.00
2019-03-22T10:53:14.928Z,17.72
2019-03-22T10:57:20.703Z,18.17
2019-03-22T11:01:26.509Z,18.29
2019-03-22T11:05:32.271Z,18.02
2019-03-22T11:09:37.951Z,17.82
2019-03-22T11:13:43.721Z,19.02
2019-03-22T11:17:49.381Z,19.20
2019-03-22T11:21:55.112Z,19.04
2019-03-22T11:26:04.379Z,19.57
2019-03-22T11:30:27.301Z,19.14
2019-03-22T11:34:32.964Z,19.22
2019-03-22T11:38:38.722Z,18.76
2019-03-22T11:42:44.422Z,19.36
2019-03-22T11:46:50.079Z,17.92
2019-03-22T11:50:55.843Z,18.35
2019-03-22T11:55:01.628Z,18.21
2019-03-22T11:59:07.356Z,18.72
2019-03-22T12:03:12.994Z,19.00
2019-03-22T12:07:19.507Z,19.67
2019-03-22T12:11:44.017Z,20.33
2019-03-22T12:15:49.906Z,18.53
2019-03-22T12:19:55.605Z,18.96
2019-03-22T12:24:01.277Z,19.14
2019-03-22T12:28:09.855Z,19.86
2019-03-22T12:32:15.522Z,20.12
2019-03-22T12:36:39.973Z,19.18
2019-03-22T12:40:46.690Z,18.89
2019-03-22T12:44:55.514Z,18.59
2019-03-22T12:49:01.411Z,18.68
2019-03-22T12:57:52.305Z,19.14
2019-03-22T13:01:58.084Z,19.86
2019-03-22T13:06:03.875Z,20.10
2019-03-22T13:10:48.834Z,20.00
2019-03-22T13:14:56.634Z,21.69
2019-03-22T13:19:21.294Z,20.17
2019-03-22T13:23:27.190Z,21.25
2019-03-22T13:27:32.918Z,20.78
2019-03-22T13:31:38.774Z,20.79
2019-03-22T13:35:44.451Z,20.68
2019-03-22T13:39:50.327Z,21.46
2019-03-22T13:43:55.992Z,22.46
2019-03-22T13:48:01.726Z,22.16
2019-03-22T13:52:07.686Z,21.71
2019-03-22T13:56:13.373Z,22.69
2019-03-22T14:00:19.234Z,22.56
2019-03-22T14:04:24.861Z,23.15
2019-03-22T14:08:30.586Z,23.86
2019-03-22T14:12:37.299Z,24.29
2019-03-22T14:16:49.311Z,24.41
2019-03-22T14:20:55.280Z,23.32
2019-03-22T14:25:01.302Z,22.78
2019-03-22T14:29:07.073Z,23.96
2019-03-22T14:33:13.745Z,23.56
2019-03-22T14:37:25.798Z,23.87
2019-03-22T14:41:50.299Z,23.22
2019-03-22T14:45:56.282Z,23.28
2019-03-22T14:50:02.066Z,24.25
2019-03-22T14:54:08.115Z,22.78
2019-03-22T14:58:13.884Z,23.91
2019-03-22T15:02:19.615Z,23.64
2019-03-22T15:06:25.383Z,23.96
2019-03-22T15:10:32.608Z,26.18
2019-03-22T15:14:57.339Z,24.10
2019-03-22T15:19:21.926Z,23.58
2019-03-22T15:23:42.193Z,23.57
2019-03-22T15:28:25.577Z,23.66
2019-03-22T15:32:50.236Z,23.14
2019-03-22T15:37:15.432Z,23.28
2019-03-22T15:41:28.255Z,23.97
2019-03-22T15:45:33.965Z,23.01
2019-03-22T15:49:58.512Z,23.95
2019-03-22T15:54:04.428Z,24.28
2019-03-22T15:58:11.709Z,22.72
2019-03-22T16:02:28.683Z,23.67
2019-03-22T16:06:34.414Z,24.53
2019-03-22T16:10:40.099Z,24.26
2019-03-22T16:14:45.794Z,24.19
2019-03-22T16:18:51.664Z,25.96
2019-03-22T16:22:57.390Z,25.12
2019-03-22T16:27:03.043Z,24.79
2019-03-22T16:31:09.059Z,25.53
2019-03-22T16:35:14.838Z,24.12
2019-03-22T16:39:20.538Z,25.96
2019-03-22T16:43:26.210Z,26.49
2019-03-22T16:47:31.854Z,23.33
2019-03-22T16:51:48.706Z,23.84
2019-03-22T16:55:54.476Z,22.93
2019-03-22T17:00:00.352Z,24.71
2019-03-22T17:04:06.077Z,24.85
2019-03-22T17:08:13.355Z,24.86
2019-03-22T17:12:20.681Z,24.57
2019-03-22T17:16:26.357Z,24.16
2019-03-22T17:20:32.098Z,25.93
2019-03-22T17:24:37.870Z,25.78
2019-03-22T17:28:43.492Z,25.69
2019-03-22T17:32:49.184Z,24.27
2019-03-22T17:37:13.892Z,22.61
2019-03-22T17:41:33.803Z,21.61
2019-03-22T17:45:46.098Z,20.32
2019-03-22T17:49:51.752Z,19.86
2019-03-22T17:53:57.384Z,19.92
2019-03-22T17:58:10.511Z,19.95
2019-03-22T18:02:17.880Z,19.76
2019-03-22T18:06:23.633Z,18.92
2019-03-22T18:10:29.310Z,18.49
2019-03-22T18:14:35.239Z,17.34
2019-03-22T18:18:40.893Z,17.42
2019-03-22T18:27:04.324Z,18.05
2019-03-22T18:31:09.983Z,17.53
2019-03-22T18:35:15.696Z,17.30
2019-03-22T18:39:21.718Z,16.46
2019-03-22T18:43:27.495Z,16.65
2019-03-22T18:47:33.182Z,16.77
2019-03-22T18:51:38.923Z,16.11
2019-03-22T18:55:44.641Z,16.22
2019-03-22T18:59:55.068Z,16.10
2019-03-22T19:04:01.101Z,15.12
2019-03-22T19:08:08.506Z,14.56
2019-03-22T19:12:14.565Z,14.09
2019-03-22T19:16:20.217Z,13.58
2019-03-22T19:20:25.902Z,13.33
2019-03-22T19:28:52.956Z,13.58
2019-03-22T19:32:58.626Z,13.19
2019-03-22T19:37:04.275Z,14.05
2019-03-22T19:41:09.983Z,13.63
2019-03-22T19:45:55.297Z,13.42
2019-03-22T19:50:01.024Z,13.51
2019-03-22T19:54:06.805Z,13.13
2019-03-22T19:58:12.596Z,12.78
2019-03-22T20:02:18.322Z,12.17
2019-03-22T20:06:25.647Z,12.19
2019-03-22T20:10:31.654Z,12.12
2019-03-22T20:14:37.604Z,12.41
2019-03-22T20:18:43.445Z,12.24
2019-03-22T20:22:49.246Z,11.96
2019-03-22T20:26:55.181Z,12.64
2019-03-22T20:31:19.721Z,13.07
2019-03-22T20:35:44.183Z,12.16
2019-03-22T20:39:50.017Z,11.90
2019-03-22T20:43:57.301Z,11.38
2019-03-22T20:48:22.264Z,11.85
2019-03-22T20:52:28.066Z,12.07
2019-03-22T20:56:33.793Z,11.96
2019-03-22T21:00:39.646Z,12.08
2019-03-22T21:04:45.426Z,11.74
2019-03-22T21:08:51.203Z,12.19
2019-03-22T21:12:56.921Z,12.08
2019-03-22T21:17:02.833Z,11.56
2019-03-22T21:21:08.554Z,11.52
2019-03-22T21:25:14.339Z,12.17
2019-03-22T21:29:20.382Z,12.29
2019-03-22T21:33:26.015Z,11.77
2019-03-22T21:37:31.717Z,11.65
2019-03-22T21:41:37.556Z,11.90
2019-03-22T21:45:43.252Z,11.45
2019-03-22T21:49:48.980Z,11.28
2019-03-22T21:53:54.651Z,11.48
2019-03-22T21:58:00.399Z,11.44
2019-03-22T22:02:06.431Z,11.59
2019-03-22T22:15:39.234Z,11.75
2019-03-22T22:19:46.542Z,11.51
2019-03-22T22:23:52.279Z,11.46
2019-03-22T22:27:58.055Z,11.35
2019-03-22T22:32:03.819Z,11.33
2019-03-22T22:36:11.407Z,11.07
2019-03-22T22:40:17.252Z,11.02
2019-03-22T22:44:23.031Z,10.91
2019-03-22T22:48:28.757Z,10.72
2019-03-22T22:52:34.559Z,10.85
2019-03-22T22:56:40.481Z,10.84
2019-03-22T23:05:06.495Z,10.56
2019-03-22T23:09:12.199Z,10.38
2019-03-22T23:13:18.014Z,10.34
2019-03-22T23:17:25.851Z,10.33
2019-03-22T23:21:31.562Z,10.40
2019-03-22T23:25:37.465Z,10.35
2019-03-22T23:29:43.184Z,10.18
2019-03-22T23:33:48.946Z,10.00
2019-03-22T23:37:54.607Z,10.07
2019-03-22T23:42:00.416Z,9.91
2019-03-22T23:46:06.125Z,9.87
2019-03-22T23:54:49.298Z,9.87
2019-03-22T23:58:55.029Z,9.67
